sensor_id;sensor_type;location;lat;lon;timestamp;pressure;altitude;pressure_sealevel;temperature;humidity
62122;BME280;48108;47.532;19.084;2023-02-28T04:46:28;101556.31;;;0.37;65.47
62122;BME280;48108;47.532;19.084;2023-02-28T04:49:33;101557.88;;;0.41;65.07
62122;BME280;48108;47.532;19.084;2023-02-28T04:52:36;101562.47;;;0.38;67.13
62122;BME280;48108;47.532;19.084;2023-02-28T04:55:38;101555.13;;;0.43;67.85
62122;BME280;48108;47.532;19.084;2023-02-28T04:58:43;101556.59;;;0.49;66.45
62122;BME280;48108;47.532;19.084;2023-02-28T05:01:48;101558.91;;;0.39;65.33
62122;BME280;48108;47.532;19.084;2023-02-28T05:04:51;101559.41;;;0.45;64.59
62122;BME280;48108;47.532;19.084;2023-02-28T05:07:54;101561.03;;;0.48;64.26
62122;BME280;48108;47.532;19.084;2023-02-28T05:10:57;101562.06;;;0.45;64.78
62122;BME280;48108;47.532;19.084;2023-02-28T05:14:05;101561.53;;;0.39;64.94
62122;BME280;48108;47.532;19.084;2023-02-28T05:17:08;101562.28;;;0.41;65.48
62122;BME280;48108;47.532;19.084;2023-02-28T05:20:12;101564.81;;;0.44;65.22
62122;BME280;48108;47.532;19.084;2023-02-28T05:23:31;101573.25;;;0.51;65.20
62122;BME280;48108;47.532;19.084;2023-02-28T05:26:38;101575.97;;;0.49;65.45
62122;BME280;48108;47.532;19.084;2023-02-28T05:29:41;101575.06;;;0.50;66.54
62122;BME280;48108;47.532;19.084;2023-02-28T05:32:50;101574.28;;;0.48;65.84
62122;BME280;48108;47.532;19.084;2023-02-28T05:35:53;101577.00;;;0.47;64.61
62122;BME280;48108;47.532;19.084;2023-02-28T05:38:56;101571.03;;;0.43;65.77
62122;BME280;48108;47.532;19.084;2023-02-28T05:41:59;101586.41;;;0.52;65.31
62122;BME280;48108;47.532;19.084;2023-02-28T05:45:03;101577.72;;;0.50;64.58
62122;BME280;48108;47.532;19.084;2023-02-28T05:48:07;101579.41;;;0.51;65.06
62122;BME280;48108;47.532;19.084;2023-02-28T05:51:10;101582.13;;;0.50;65.19
62122;BME280;48108;47.532;19.084;2023-02-28T05:54:13;101584.53;;;0.54;64.43
62122;BME280;48108;47.532;19.084;2023-02-28T05:57:16;101593.28;;;0.56;65.07
62122;BME280;48108;47.532;19.084;2023-02-28T06:00:26;101594.47;;;0.66;64.55
62122;BME280;48108;47.532;19.084;2023-02-28T06:03:29;101588.66;;;0.76;63.70
62122;BME280;48108;47.532;19.084;2023-02-28T06:06:32;101594.06;;;0.74;63.89
62122;BME280;48108;47.532;19.084;2023-02-28T06:09:39;101593.78;;;0.79;63.69
62122;BME280;48108;47.532;19.084;2023-02-28T06:12:41;101597.22;;;0.81;63.20
62122;BME280;48108;47.532;19.084;2023-02-28T06:15:44;101596.88;;;0.87;62.52
62122;BME280;48108;47.532;19.084;2023-02-28T06:18:47;101605.09;;;0.82;61.71
62122;BME280;48108;47.532;19.084;2023-02-28T06:21:51;101608.25;;;0.89;62.25
62122;BME280;48108;47.532;19.084;2023-02-28T06:24:55;101600.91;;;0.94;61.67
62122;BME280;48108;47.532;19.084;2023-02-28T06:28:02;101613.22;;;0.95;62.18
62122;BME280;48108;47.532;19.084;2023-02-28T06:31:07;101607.91;;;0.95;62.74
62122;BME280;48108;47.532;19.084;2023-02-28T06:34:11;101614.56;;;1.02;60.99
62122;BME280;48108;47.532;19.084;2023-02-28T06:37:14;101619.87;;;1.18;61.33
62122;BME280;48108;47.532;19.084;2023-02-28T06:40:17;101612.78;;;1.19;59.58
62122;BME280;48108;47.532;19.084;2023-02-28T06:43:21;101615.44;;;1.19;59.66
62122;BME280;48108;47.532;19.084;2023-02-28T06:46:26;101610.38;;;1.30;59.66
62122;BME280;48108;47.532;19.084;2023-02-28T06:49:31;101616.78;;;1.42;58.89
62122;BME280;48108;47.532;19.084;2023-02-28T06:52:34;101627.88;;;1.48;60.41
62122;BME280;48108;47.532;19.084;2023-02-28T06:55:40;101628.06;;;1.45;58.81
62122;BME280;48108;47.532;19.084;2023-02-28T06:58:48;101621.69;;;1.64;59.39
62122;BME280;48108;47.532;19.084;2023-02-28T07:01:51;101615.44;;;1.65;57.82
62122;BME280;48108;47.532;19.084;2023-02-28T07:04:55;101621.84;;;1.76;57.39
62122;BME280;48108;47.532;19.084;2023-02-28T07:07:57;101626.09;;;1.79;58.12
62122;BME280;48108;47.532;19.084;2023-02-28T07:11:01;101620.13;;;1.90;57.48
62122;BME280;48108;47.532;19.084;2023-02-28T07:14:04;101616.97;;;2.13;58.31
62122;BME280;48108;47.532;19.084;2023-02-28T07:17:08;101629.41;;;2.27;57.22
62122;BME280;48108;47.532;19.084;2023-02-28T07:20:13;101634.06;;;2.23;55.52
62122;BME280;48108;47.532;19.084;2023-02-28T07:23:17;101632.34;;;2.37;55.85
62122;BME280;48108;47.532;19.084;2023-02-28T07:26:20;101641.69;;;2.44;55.15
62122;BME280;48108;47.532;19.084;2023-02-28T07:29:23;101639.78;;;2.46;54.73
62122;BME280;48108;47.532;19.084;2023-02-28T07:32:26;101641.28;;;2.36;54.67
62122;BME280;48108;47.532;19.084;2023-02-28T07:35:30;101644.78;;;2.22;56.25
62122;BME280;48108;47.532;19.084;2023-02-28T07:38:35;101645.16;;;2.30;56.48
62122;BME280;48108;47.532;19.084;2023-02-28T07:41:38;101641.94;;;2.54;55.37
62122;BME280;48108;47.532;19.084;2023-02-28T07:44:46;101637.59;;;2.67;54.29
62122;BME280;48108;47.532;19.084;2023-02-28T07:47:49;101639.41;;;2.66;54.98
62122;BME280;48108;47.532;19.084;2023-02-28T07:50:58;101639.94;;;2.71;54.38
62122;BME280;48108;47.532;19.084;2023-02-28T07:54:02;101645.56;;;2.81;54.51
62122;BME280;48108;47.532;19.084;2023-02-28T07:57:05;101643.66;;;2.83;53.68
62122;BME280;48108;47.532;19.084;2023-02-28T08:00:10;101645.94;;;2.75;53.97
62122;BME280;48108;47.532;19.084;2023-02-28T08:03:17;101635.00;;;2.51;54.49
62122;BME280;48108;47.532;19.084;2023-02-28T08:06:23;101635.00;;;2.65;54.93
62122;BME280;48108;47.532;19.084;2023-02-28T08:09:26;101645.47;;;2.68;54.81
62122;BME280;48108;47.532;19.084;2023-02-28T08:12:29;101644.97;;;2.90;53.32
62122;BME280;48108;47.532;19.084;2023-02-28T08:15:32;101642.63;;;3.13;54.10
62122;BME280;48108;47.532;19.084;2023-02-28T08:18:35;101642.06;;;3.22;52.94
62122;BME280;48108;47.532;19.084;2023-02-28T08:21:38;101647.88;;;3.41;52.23
62122;BME280;48108;47.532;19.084;2023-02-28T08:24:42;101648.38;;;3.48;52.20
62122;BME280;48108;47.532;19.084;2023-02-28T08:27:46;101640.81;;;3.55;52.74
62122;BME280;48108;47.532;19.084;2023-02-28T08:30:49;101653.69;;;3.48;51.16
62122;BME280;48108;47.532;19.084;2023-02-28T08:33:52;101645.72;;;3.61;50.41
62122;BME280;48108;47.532;19.084;2023-02-28T08:36:55;101643.72;;;4.04;50.93
62122;BME280;48108;47.532;19.084;2023-02-28T08:40:01;101634.34;;;4.24;48.32
62122;BME280;48108;47.532;19.084;2023-02-28T08:43:06;101639.69;;;4.24;49.16
62122;BME280;48108;47.532;19.084;2023-02-28T08:46:12;101638.81;;;4.37;48.29
62122;BME280;48108;47.532;19.084;2023-02-28T08:49:14;101639.47;;;4.40;47.75
62122;BME280;48108;47.532;19.084;2023-02-28T08:52:18;101642.03;;;4.42;47.33
62122;BME280;48108;47.532;19.084;2023-02-28T08:55:21;101642.44;;;4.61;48.25
62122;BME280;48108;47.532;19.084;2023-02-28T08:58:26;101648.06;;;4.82;48.91
62122;BME280;48108;47.532;19.084;2023-02-28T09:01:29;101633.84;;;4.94;48.25
62122;BME280;48108;47.532;19.084;2023-02-28T09:04:33;101633.19;;;4.91;48.89
62122;BME280;48108;47.532;19.084;2023-02-28T09:07:36;101635.56;;;4.95;47.88
62122;BME280;48108;47.532;19.084;2023-02-28T09:10:39;101630.22;;;4.95;47.87
62122;BME280;48108;47.532;19.084;2023-02-28T09:13:42;101643.03;;;4.90;47.30
62122;BME280;48108;47.532;19.084;2023-02-28T09:16:45;101636.87;;;4.64;48.24
62122;BME280;48108;47.532;19.084;2023-02-28T09:19:48;101634.88;;;5.05;49.27
62122;BME280;48108;47.532;19.084;2023-02-28T09:22:52;101640.88;;;4.95;48.42
62122;BME280;48108;47.532;19.084;2023-02-28T09:25:54;101640.28;;;5.16;47.52
62122;BME280;48108;47.532;19.084;2023-02-28T09:28:57;101645.28;;;5.20;47.68
62122;BME280;48108;47.532;19.084;2023-02-28T09:32:05;101638.69;;;5.13;48.01
62122;BME280;48108;47.532;19.084;2023-02-28T09:35:08;101638.41;;;5.29;47.50
62122;BME280;48108;47.532;19.084;2023-02-28T09:38:16;101646.91;;;5.47;47.07
62122;BME280;48108;47.532;19.084;2023-02-28T09:41:22;101644.03;;;5.61;47.49
62122;BME280;48108;47.532;19.084;2023-02-28T09:44:32;101645.75;;;5.86;47.94
62122;BME280;48108;47.532;19.084;2023-02-28T09:47:42;101650.59;;;6.17;45.34
62122;BME280;48108;47.532;19.084;2023-02-28T09:50:48;101644.00;;;5.98;45.42
62122;BME280;48108;47.532;19.084;2023-02-28T09:53:53;101633.81;;;6.03;44.47
62122;BME280;48108;47.532;19.084;2023-02-28T09:57:13;101632.00;;;6.15;45.22
62122;BME280;48108;47.532;19.084;2023-02-28T10:00:39;101637.50;;;6.25;46.63
62122;BME280;48108;47.532;19.084;2023-02-28T10:04:08;101633.75;;;6.39;45.41
62122;BME280;48108;47.532;19.084;2023-02-28T10:10:44;101630.94;;;6.29;45.62
62122;BME280;48108;47.532;19.084;2023-02-28T10:13:52;101632.53;;;6.54;45.92
62122;BME280;48108;47.532;19.084;2023-02-28T10:17:02;101626.56;;;6.84;44.43
62122;BME280;48108;47.532;19.084;2023-02-28T10:20:17;101628.00;;;7.11;44.02
62122;BME280;48108;47.532;19.084;2023-02-28T10:23:28;101615.63;;;7.42;43.31
62122;BME280;48108;47.532;19.084;2023-02-28T10:26:36;101621.81;;;7.75;42.26
62122;BME280;48108;47.532;19.084;2023-02-28T10:29:40;101615.03;;;6.72;43.50
62122;BME280;48108;47.532;19.084;2023-02-28T10:32:50;101618.56;;;6.62;43.80
62122;BME280;48108;47.532;19.084;2023-02-28T10:35:56;101614.13;;;7.17;43.58
62122;BME280;48108;47.532;19.084;2023-02-28T10:38:59;101612.22;;;6.74;43.82
62122;BME280;48108;47.532;19.084;2023-02-28T10:42:03;101601.66;;;6.39;45.04
62122;BME280;48108;47.532;19.084;2023-02-28T10:51:19;101595.19;;;6.75;45.61
62122;BME280;48108;47.532;19.084;2023-02-28T10:54:26;101592.78;;;7.26;44.84
62122;BME280;48108;47.532;19.084;2023-02-28T10:57:30;101595.06;;;7.31;44.87
62122;BME280;48108;47.532;19.084;2023-02-28T11:00:35;101579.88;;;7.64;44.29
62122;BME280;48108;47.532;19.084;2023-02-28T11:03:38;101582.97;;;7.48;44.19
62122;BME280;48108;47.532;19.084;2023-02-28T11:06:41;101582.47;;;7.11;44.13
62122;BME280;48108;47.532;19.084;2023-02-28T11:09:48;101580.56;;;6.90;44.68
62122;BME280;48108;47.532;19.084;2023-02-28T11:12:56;101585.44;;;6.96;44.87
62122;BME280;48108;47.532;19.084;2023-02-28T11:16:03;101587.38;;;7.06;46.82
62122;BME280;48108;47.532;19.084;2023-02-28T11:19:22;101582.56;;;7.32;46.53
62122;BME280;48108;47.532;19.084;2023-02-28T11:22:30;101590.47;;;7.54;45.11
62122;BME280;48108;47.532;19.084;2023-02-28T11:25:37;101574.56;;;7.94;45.52
62122;BME280;48108;47.532;19.084;2023-02-28T11:28:41;101584.06;;;7.99;43.85
62122;BME280;48108;47.532;19.084;2023-02-28T11:32:04;101584.25;;;7.65;43.66
62122;BME280;48108;47.532;19.084;2023-02-28T11:38:13;101573.13;;;8.63;42.66
62122;BME280;48108;47.532;19.084;2023-02-28T11:48:06;101564.25;;;8.42;44.13
62122;BME280;48108;47.532;19.084;2023-02-28T11:51:32;101564.72;;;8.26;44.47
62122;BME280;48108;47.532;19.084;2023-02-28T11:54:47;101564.63;;;8.06;44.63
62122;BME280;48108;47.532;19.084;2023-02-28T12:01:16;101550.69;;;7.91;44.22
62122;BME280;48108;47.532;19.084;2023-02-28T12:08:11;101556.97;;;8.02;44.58
62122;BME280;48108;47.532;19.084;2023-02-28T12:18:13;101542.81;;;10.26;39.65
62122;BME280;48108;47.532;19.084;2023-02-28T12:27:30;101527.94;;;11.15;38.20
62122;BME280;48108;47.532;19.084;2023-02-28T12:30:41;101525.47;;;11.03;40.46
62122;BME280;48108;47.532;19.084;2023-02-28T12:33:52;101524.16;;;11.25;37.80
62122;BME280;48108;47.532;19.084;2023-02-28T12:36:58;101510.72;;;10.80;38.74
62122;BME280;48108;47.532;19.084;2023-02-28T12:40:11;101513.44;;;11.16;38.83
62122;BME280;48108;47.532;19.084;2023-02-28T12:43:17;101511.47;;;11.00;38.52
62122;BME280;48108;47.532;19.084;2023-02-28T12:46:24;101504.97;;;11.72;37.40
62122;BME280;48108;47.532;19.084;2023-02-28T12:49:33;101509.09;;;11.76;37.60
62122;BME280;48108;47.532;19.084;2023-02-28T12:52:54;101505.19;;;10.99;38.38
62122;BME280;48108;47.532;19.084;2023-02-28T12:59:23;101502.34;;;10.28;40.83
62122;BME280;48108;47.532;19.084;2023-02-28T13:09:33;101493.50;;;10.45;40.50
62122;BME280;48108;47.532;19.084;2023-02-28T13:12:36;101488.81;;;10.00;40.20
62122;BME280;48108;47.532;19.084;2023-02-28T13:19:10;101492.59;;;9.70;42.13
62122;BME280;48108;47.532;19.084;2023-02-28T13:28:57;101490.50;;;9.35;42.66
62122;BME280;48108;47.532;19.084;2023-02-28T13:38:17;101489.53;;;8.87;43.76
62122;BME280;48108;47.532;19.084;2023-02-28T13:48:19;101471.72;;;9.35;42.83
62122;BME280;48108;47.532;19.084;2023-02-28T13:51:43;101468.16;;;9.15;43.97
62122;BME280;48108;47.532;19.084;2023-02-28T13:55:11;101464.88;;;9.50;42.69
62122;BME280;48108;47.532;19.084;2023-02-28T14:05:00;101458.00;;;8.99;43.13
62122;BME280;48108;47.532;19.084;2023-02-28T14:08:08;101457.97;;;8.60;44.65
62122;BME280;48108;47.532;19.084;2023-02-28T14:11:32;101456.84;;;8.72;43.41
62122;BME280;48108;47.532;19.084;2023-02-28T14:17:38;101443.84;;;8.27;45.97
62122;BME280;48108;47.532;19.084;2023-02-28T14:20:43;101451.31;;;8.14;45.49
62122;BME280;48108;47.532;19.084;2023-02-28T14:33:57;101446.03;;;7.72;47.76
62122;BME280;48108;47.532;19.084;2023-02-28T14:37:04;101436.59;;;7.47;48.40
62122;BME280;48108;47.532;19.084;2023-02-28T14:40:43;101445.00;;;7.42;47.54
62122;BME280;48108;47.532;19.084;2023-02-28T14:43:49;101447.09;;;7.18;47.65
62122;BME280;48108;47.532;19.084;2023-02-28T14:47:02;101443.91;;;7.24;48.06
62122;BME280;48108;47.532;19.084;2023-02-28T14:50:21;101448.47;;;7.12;48.77
62122;BME280;48108;47.532;19.084;2023-02-28T14:53:28;101443.31;;;6.99;48.91
62122;BME280;48108;47.532;19.084;2023-02-28T14:56:37;101450.28;;;6.91;49.88
62122;BME280;48108;47.532;19.084;2023-02-28T14:59:41;101445.34;;;6.64;49.73
62122;BME280;48108;47.532;19.084;2023-02-28T15:02:44;101445.62;;;6.93;49.76
62122;BME280;48108;47.532;19.084;2023-02-28T15:06:05;101450.59;;;6.97;49.56
62122;BME280;48108;47.532;19.084;2023-02-28T15:09:18;101451.22;;;6.46;51.20
62122;BME280;48108;47.532;19.084;2023-02-28T15:12:21;101448.97;;;6.74;50.77
62122;BME280;48108;47.532;19.084;2023-02-28T15:15:29;101449.78;;;6.53;51.44
62122;BME280;48108;47.532;19.084;2023-02-28T15:18:56;101452.69;;;6.50;51.65
62122;BME280;48108;47.532;19.084;2023-02-28T15:22:07;101456.56;;;6.57;52.07
62122;BME280;48108;47.532;19.084;2023-02-28T15:25:18;101462.91;;;6.56;51.64
62122;BME280;48108;47.532;19.084;2023-02-28T15:28:23;101459.16;;;6.48;52.76
62122;BME280;48108;47.532;19.084;2023-02-28T15:31:29;101450.78;;;6.30;53.22
62122;BME280;48108;47.532;19.084;2023-02-28T15:34:48;101450.19;;;6.26;53.21
62122;BME280;48108;47.532;19.084;2023-02-28T15:37:57;101445.44;;;6.07;53.82
62122;BME280;48108;47.532;19.084;2023-02-28T15:41:03;101442.78;;;6.19;53.21
62122;BME280;48108;47.532;19.084;2023-02-28T15:44:33;101448.81;;;5.87;54.01
62122;BME280;48108;47.532;19.084;2023-02-28T15:47:39;101441.53;;;5.78;55.42
62122;BME280;48108;47.532;19.084;2023-02-28T15:51:07;101444.91;;;5.57;55.96
62122;BME280;48108;47.532;19.084;2023-02-28T15:54:19;101438.72;;;5.57;56.82
62122;BME280;48108;47.532;19.084;2023-02-28T15:57:25;101442.22;;;5.46;56.75
62122;BME280;48108;47.532;19.084;2023-02-28T16:00:31;101447.53;;;5.35;57.95
62122;BME280;48108;47.532;19.084;2023-02-28T16:03:42;101445.66;;;5.13;58.41
62122;BME280;48108;47.532;19.084;2023-02-28T16:10:01;101448.66;;;5.08;58.80
62122;BME280;48108;47.532;19.084;2023-02-28T16:13:04;101448.91;;;5.05;59.81
62122;BME280;48108;47.532;19.084;2023-02-28T16:16:07;101440.44;;;5.11;59.65
62122;BME280;48108;47.532;19.084;2023-02-28T16:19:10;101454.13;;;5.07;60.09
62122;BME280;48108;47.532;19.084;2023-02-28T16:22:13;101460.41;;;5.06;59.95
62122;BME280;48108;47.532;19.084;2023-02-28T16:25:20;101457.97;;;5.03;60.48
62122;BME280;48108;47.532;19.084;2023-02-28T16:28:29;101463.16;;;4.93;61.03
62122;BME280;48108;47.532;19.084;2023-02-28T16:31:37;101463.28;;;4.91;61.59
62122;BME280;48108;47.532;19.084;2023-02-28T16:34:41;101458.22;;;4.75;62.01
62122;BME280;48108;47.532;19.084;2023-02-28T16:37:44;101462.56;;;4.65;62.51
62122;BME280;48108;47.532;19.084;2023-02-28T16:40:50;101466.69;;;4.69;62.22
62122;BME280;48108;47.532;19.084;2023-02-28T16:43:54;101466.53;;;4.60;62.85
62122;BME280;48108;47.532;19.084;2023-02-28T16:47:03;101471.28;;;4.67;62.68
62122;BME280;48108;47.532;19.084;2023-02-28T16:50:14;101477.28;;;4.58;62.84
62122;BME280;48108;47.532;19.084;2023-02-28T16:53:19;101479.22;;;4.56;63.79
62122;BME280;48108;47.532;19.084;2023-02-28T16:56:23;101487.44;;;4.53;64.02
62122;BME280;48108;47.532;19.084;2023-02-28T16:59:31;101483.59;;;4.57;64.70
62122;BME280;48108;47.532;19.084;2023-02-28T17:02:35;101490.75;;;4.57;63.66
